createdAt,value
2018-08-09T00:01:29.103Z,9.87
2018-08-09T00:03:57.441Z,7.70
2018-08-09T00:06:25.826Z,10.07
2018-08-09T00:08:54.176Z,7.33
2018-08-09T00:11:22.507Z,8.57
2018-08-09T00:13:50.870Z,8.23
2018-08-09T00:16:19.238Z,11.07
2018-08-09T00:18:47.567Z,8.20
2018-08-09T00:21:15.914Z,10.60
2018-08-09T00:23:44.294Z,7.63
2018-08-09T00:26:12.662Z,11.03
2018-08-09T00:28:41.403Z,8.70
2018-08-09T00:31:09.764Z,9.77
2018-08-09T00:33:38.137Z,9.70
2018-08-09T00:36:06.586Z,10.37
2018-08-09T00:38:34.923Z,7.50
2018-08-09T00:41:03.269Z,13.60
2018-08-09T00:43:31.692Z,8.47
2018-08-09T00:46:00.025Z,6.77
2018-08-09T00:48:28.350Z,10.00
2018-08-09T00:50:56.683Z,9.27
2018-08-09T00:53:25.051Z,10.70
2018-08-09T00:55:53.398Z,8.93
2018-08-09T00:58:21.721Z,11.00
2018-08-09T01:00:50.150Z,8.30
2018-08-09T01:03:18.500Z,11.07
2018-08-09T01:05:46.850Z,11.40
2018-08-09T01:08:15.230Z,11.40
2018-08-09T01:10:43.579Z,10.13
2018-08-09T01:13:11.906Z,10.43
2018-08-09T01:15:40.289Z,10.63
2018-08-09T01:18:09.271Z,12.63
2018-08-09T01:20:37.626Z,12.93
2018-08-09T01:23:05.984Z,14.93
2018-08-09T01:25:34.410Z,12.80
2018-08-09T01:28:02.780Z,11.87
2018-08-09T01:30:31.112Z,10.97
2018-08-09T01:32:59.538Z,10.50
2018-08-09T01:35:27.879Z,13.73
2018-08-09T01:39:25.686Z,10.27
2018-08-09T01:42:05.390Z,12.73
2018-08-09T01:44:33.702Z,10.33
2018-08-09T01:47:02.033Z,10.70
2018-08-09T01:49:30.397Z,13.77
2018-08-09T01:51:58.842Z,9.80
2018-08-09T01:54:27.249Z,17.00
2018-08-09T01:56:55.589Z,12.43
2018-08-09T01:59:23.923Z,12.33
2018-08-09T02:01:52.279Z,11.70
2018-08-09T02:04:21.153Z,12.37
2018-08-09T02:06:49.487Z,10.80
2018-08-09T02:09:23.275Z,12.20
2018-08-09T02:11:51.639Z,11.13
2018-08-09T02:14:19.992Z,12.80
2018-08-09T02:16:48.333Z,13.70
2018-08-09T02:19:16.697Z,13.50
2018-08-09T02:21:45.022Z,12.03
2018-08-09T02:24:13.360Z,12.97
2018-08-09T02:26:41.709Z,13.23
2018-08-09T02:29:10.039Z,14.43
2018-08-09T02:31:38.427Z,12.90
2018-08-09T02:34:07.508Z,12.80
2018-08-09T02:36:36.704Z,13.33
2018-08-09T02:39:07.829Z,12.77
2018-08-09T02:41:36.887Z,15.47
2018-08-09T02:44:05.983Z,12.97
2018-08-09T02:46:35.066Z,16.00
2018-08-09T02:49:18.550Z,12.40
2018-08-09T02:51:47.566Z,15.73
2018-08-09T02:54:16.407Z,11.73
2018-08-09T02:56:45.084Z,15.03
2018-08-09T02:59:14.050Z,11.63
2018-08-09T03:01:43.107Z,13.57
2018-08-09T03:04:11.399Z,13.90
2018-08-09T03:06:39.761Z,14.13
2018-08-09T03:09:10.771Z,15.47
2018-08-09T03:11:39.136Z,14.57
2018-08-09T03:14:07.465Z,14.97
2018-08-09T03:16:35.793Z,14.40
2018-08-09T03:19:04.140Z,13.47
2018-08-09T03:21:32.467Z,13.90
2018-08-09T03:24:00.821Z,13.93
2018-08-09T03:26:29.148Z,17.00
2018-08-09T03:28:57.456Z,13.67
2018-08-09T03:31:25.800Z,15.40
2018-08-09T03:33:54.131Z,14.33
2018-08-09T03:36:22.476Z,12.90
2018-08-09T03:38:50.808Z,13.67
2018-08-09T03:41:19.126Z,13.13
2018-08-09T03:43:47.464Z,13.63
2018-08-09T03:46:15.798Z,13.83
2018-08-09T03:48:44.120Z,14.97
2018-08-09T03:51:12.443Z,17.03
2018-08-09T03:53:40.788Z,13.23
2018-08-09T03:56:09.165Z,14.20
2018-08-09T03:58:37.518Z,16.40
2018-08-09T04:01:05.909Z,13.53
2018-08-09T04:03:34.232Z,13.73
2018-08-09T04:06:02.596Z,13.70
2018-08-09T04:08:30.913Z,14.40
2018-08-09T04:10:59.256Z,14.67
2018-08-09T04:13:27.575Z,14.20
2018-08-09T04:15:55.975Z,16.73
2018-08-09T04:18:24.285Z,17.30
2018-08-09T04:20:52.613Z,16.77
2018-08-09T04:23:20.962Z,16.30
2018-08-09T04:25:49.360Z,16.00
2018-08-09T04:28:17.702Z,15.23
2018-08-09T04:30:46.048Z,15.00
2018-08-09T04:33:14.408Z,14.97
2018-08-09T04:35:42.750Z,15.23
2018-08-09T04:38:11.440Z,14.43
2018-08-09T04:40:39.868Z,18.43
2018-08-09T04:43:08.291Z,15.63
2018-08-09T04:45:36.882Z,16.13
2018-08-09T04:48:05.536Z,19.33
2018-08-09T04:50:34.075Z,15.87
2018-08-09T04:53:02.464Z,15.13
2018-08-09T04:55:31.259Z,16.97
2018-08-09T04:57:59.711Z,15.27
2018-08-09T05:00:28.094Z,17.27
2018-08-09T05:02:56.960Z,16.87
2018-08-09T05:05:25.621Z,17.83
2018-08-09T05:07:54.063Z,17.00
2018-08-09T05:10:23.395Z,16.87
2018-08-09T05:12:51.765Z,27.73
2018-08-09T05:15:20.397Z,16.70
2018-08-09T05:17:48.820Z,19.60
2018-08-09T05:20:17.260Z,16.90
2018-08-09T05:22:45.855Z,18.67
2018-08-09T05:25:14.225Z,16.23
2018-08-09T05:27:42.628Z,19.27
2018-08-09T05:30:11.046Z,16.07
2018-08-09T05:32:39.429Z,20.53
2018-08-09T05:35:08.073Z,17.53
2018-08-09T05:37:36.555Z,20.00
2018-08-09T05:40:05.327Z,16.70
2018-08-09T05:49:21.608Z,17.27
2018-08-09T05:51:50.797Z,20.33
2018-08-09T05:54:19.164Z,20.90
2018-08-09T05:56:47.476Z,17.97
2018-08-09T06:03:52.381Z,23.40
2018-08-09T06:06:20.763Z,20.50
2018-08-09T06:08:49.267Z,19.43
2018-08-09T06:11:17.844Z,21.70
2018-08-09T06:13:46.211Z,20.97
2018-08-09T06:16:14.712Z,19.63
2018-08-09T06:18:43.156Z,18.17
2018-08-09T06:21:11.494Z,17.40
2018-08-09T06:23:39.839Z,19.67
2018-08-09T06:26:08.139Z,17.23
2018-08-09T06:28:36.486Z,19.07
2018-08-09T06:31:04.844Z,18.80
2018-08-09T06:33:33.213Z,19.13
2018-08-09T06:36:01.574Z,24.93
2018-08-09T06:38:30.015Z,21.43
2018-08-09T06:40:58.352Z,20.67
2018-08-09T06:43:26.712Z,17.07
2018-08-09T06:45:55.237Z,21.50
2018-08-09T06:48:23.596Z,18.53
2018-08-09T06:50:52.020Z,19.37
2018-08-09T06:53:20.554Z,20.13
2018-08-09T06:55:48.882Z,19.27
2018-08-09T06:58:17.296Z,23.60
2018-08-09T07:00:47.497Z,17.77
2018-08-09T07:03:15.863Z,17.87
2018-08-09T07:05:44.244Z,18.30
2018-08-09T07:08:12.603Z,17.70
2018-08-09T07:10:40.970Z,15.37
2018-08-09T07:13:09.389Z,16.13
2018-08-09T07:15:37.771Z,18.07
2018-08-09T07:18:06.655Z,16.50
2018-08-09T07:20:35.341Z,17.90
2018-08-09T07:23:03.879Z,15.33
2018-08-09T07:25:32.333Z,15.30
2018-08-09T07:28:00.671Z,17.57
2018-08-09T07:30:29.046Z,16.80
2018-08-09T07:32:57.420Z,22.37
2018-08-09T07:35:25.782Z,15.37
2018-08-09T07:37:54.156Z,13.43
2018-08-09T07:42:59.778Z,10.37
2018-08-09T07:45:28.208Z,11.97
2018-08-09T07:47:56.703Z,15.33
2018-08-09T07:50:25.081Z,11.07
2018-08-09T07:52:53.453Z,11.57
2018-08-09T07:55:21.844Z,10.53
2018-08-09T07:57:50.283Z,12.13
2018-08-09T08:00:18.997Z,11.43
2018-08-09T08:02:47.698Z,12.27
2018-08-09T08:05:16.105Z,12.43
2018-08-09T08:07:44.838Z,9.90
2018-08-09T08:10:13.508Z,14.03
2018-08-09T08:12:41.924Z,9.13
2018-08-09T08:15:11.256Z,9.80
2018-08-09T08:17:39.944Z,8.63
2018-08-09T08:20:08.641Z,7.10
2018-08-09T08:22:37.035Z,9.03
2018-08-09T08:25:06.090Z,6.30
2018-08-09T08:27:34.418Z,9.30
2018-08-09T08:30:02.957Z,5.83
2018-08-09T08:32:31.312Z,6.80
2018-08-09T08:34:59.748Z,4.33
2018-08-09T08:44:14.034Z,8.03
2018-08-09T08:46:42.475Z,4.87
2018-08-09T08:49:11.171Z,4.30
2018-08-09T08:51:39.753Z,4.10
2018-08-09T08:54:09.085Z,8.73
2018-08-09T08:56:37.534Z,5.27
2018-08-09T08:59:05.956Z,4.60
2018-08-09T09:01:34.470Z,7.90
2018-08-09T09:04:03.573Z,6.83
2018-08-09T09:06:31.977Z,10.27
2018-08-09T09:09:00.367Z,12.33
2018-08-09T09:11:28.952Z,6.70
2018-08-09T09:13:57.412Z,7.50
2018-08-09T09:16:25.732Z,11.87
2018-08-09T09:18:54.548Z,10.50
2018-08-09T09:21:22.917Z,14.40
2018-08-09T09:23:51.272Z,13.10
2018-08-09T09:26:19.627Z,13.13
2018-08-09T09:28:47.989Z,18.97
2018-08-09T09:31:16.317Z,22.73
2018-08-09T09:33:45.476Z,16.00
2018-08-09T09:36:13.836Z,11.80
2018-08-09T09:38:42.284Z,10.10
2018-08-09T09:41:10.630Z,12.83
2018-08-09T09:43:38.969Z,13.27
2018-08-09T09:46:07.417Z,15.77
2018-08-09T09:48:35.790Z,10.27
2018-08-09T09:51:04.171Z,12.57
2018-08-09T09:53:32.520Z,10.80
2018-08-09T09:56:01.870Z,15.73
2018-08-09T09:58:30.248Z,9.50
2018-08-09T10:01:04.042Z,9.50
2018-08-09T10:03:32.823Z,8.07
2018-08-09T10:06:01.182Z,13.40
2018-08-09T10:08:29.597Z,9.33
2018-08-09T10:10:57.948Z,8.93
2018-08-09T10:13:26.332Z,12.13
2018-08-09T10:15:54.647Z,8.80
2018-08-09T10:18:22.988Z,12.83
2018-08-09T10:20:51.334Z,9.80
2018-08-09T10:23:19.984Z,9.63
2018-08-09T10:25:48.352Z,10.70
2018-08-09T10:28:16.715Z,12.60
2018-08-09T10:30:45.090Z,11.50
2018-08-09T10:33:13.486Z,11.63
2018-08-09T10:35:41.865Z,12.40
2018-08-09T10:38:10.385Z,11.97
2018-08-09T10:40:38.716Z,13.00
2018-08-09T10:43:07.118Z,12.53
2018-08-09T10:45:35.493Z,12.27
2018-08-09T10:48:03.878Z,14.80
2018-08-09T10:50:32.260Z,12.57
2018-08-09T10:53:00.633Z,12.67
2018-08-09T10:55:28.981Z,13.27
2018-08-09T10:57:57.296Z,14.60
2018-08-09T11:00:25.931Z,12.13
2018-08-09T11:02:54.352Z,11.90
2018-08-09T11:05:22.706Z,10.17
2018-08-09T11:07:51.126Z,12.20
2018-08-09T11:10:19.502Z,12.43
2018-08-09T11:12:47.856Z,12.20
2018-08-09T11:15:16.241Z,11.03
2018-08-09T11:17:44.597Z,12.27
2018-08-09T11:20:12.989Z,14.17
2018-08-09T11:22:41.303Z,11.90
2018-08-09T11:25:10.156Z,12.40
2018-08-09T11:27:38.515Z,11.97
2018-08-09T11:30:07.151Z,13.27
2018-08-09T11:32:35.892Z,19.07
2018-08-09T11:35:04.491Z,16.37
2018-08-09T11:37:33.060Z,16.80
2018-08-09T11:40:01.421Z,17.03
2018-08-09T11:42:29.829Z,18.13
2018-08-09T11:44:58.208Z,18.37
2018-08-09T11:47:26.525Z,14.80
2018-08-09T11:49:54.863Z,15.93
2018-08-09T11:52:23.191Z,17.47
2018-08-09T11:54:51.620Z,20.20
2018-08-09T11:57:19.978Z,23.03
2018-08-09T11:59:48.345Z,19.50
2018-08-09T12:02:16.668Z,19.97
2018-08-09T12:04:45.062Z,19.53
2018-08-09T12:07:13.410Z,22.90
2018-08-09T12:09:41.745Z,22.93
2018-08-09T12:12:10.131Z,24.17
2018-08-09T12:14:38.604Z,23.90
2018-08-09T12:17:07.041Z,23.93
2018-08-09T12:19:35.414Z,25.50
2018-08-09T12:22:03.819Z,25.63
2018-08-09T12:24:32.172Z,28.57
2018-08-09T12:27:00.565Z,28.33
2018-08-09T12:29:28.958Z,25.33
2018-08-09T12:31:57.371Z,29.60
2018-08-09T12:34:25.759Z,31.13
2018-08-09T12:36:54.154Z,24.37
2018-08-09T12:39:22.524Z,28.23
2018-08-09T12:41:50.964Z,27.50
2018-08-09T12:44:19.353Z,24.57
2018-08-09T12:46:47.729Z,27.03
2018-08-09T12:49:16.138Z,28.97
2018-08-09T12:51:44.544Z,27.27
2018-08-09T12:54:12.912Z,23.73
2018-08-09T12:56:41.343Z,23.57
2018-08-09T12:59:09.803Z,22.43
2018-08-09T13:01:38.256Z,27.87
2018-08-09T13:04:06.633Z,27.47
2018-08-09T13:06:35.020Z,26.90
2018-08-09T13:09:04.427Z,26.13
2018-08-09T13:11:32.818Z,25.33
2018-08-09T13:14:01.178Z,26.57
2018-08-09T13:16:29.537Z,24.53
2018-08-09T13:18:57.926Z,27.83
2018-08-09T13:21:26.285Z,24.40
2018-08-09T13:23:54.673Z,27.37
2018-08-09T13:26:23.059Z,28.83
2018-08-09T13:28:51.413Z,29.47
2018-08-09T13:31:19.818Z,26.40
2018-08-09T13:33:48.221Z,25.93
2018-08-09T13:36:16.608Z,26.43
2018-08-09T13:38:45.128Z,30.40
2018-08-09T13:41:13.524Z,29.10
2018-08-09T13:43:41.929Z,28.83
2018-08-09T13:46:10.327Z,24.87
2018-08-09T13:48:38.748Z,25.17
2018-08-09T13:51:07.213Z,27.77
2018-08-09T13:53:35.598Z,29.30
2018-08-09T13:56:04.188Z,28.03
2018-08-09T13:58:32.687Z,25.43
2018-08-09T14:01:01.117Z,28.17
2018-08-09T14:03:29.501Z,28.93
2018-08-09T14:05:57.936Z,25.67
2018-08-09T14:08:26.356Z,27.77
2018-08-09T14:10:54.756Z,28.47
2018-08-09T14:13:23.140Z,25.83
2018-08-09T14:15:51.708Z,26.93
2018-08-09T14:18:20.169Z,30.73
2018-08-09T14:20:48.590Z,29.40
2018-08-09T14:23:16.962Z,31.07
2018-08-09T14:25:45.549Z,33.43
2018-08-09T14:28:13.917Z,31.57
2018-08-09T14:30:42.373Z,31.53
2018-08-09T14:33:10.743Z,32.73
2018-08-09T14:35:39.083Z,30.33
2018-08-09T14:38:07.500Z,29.93
2018-08-09T14:40:35.861Z,30.00
2018-08-09T14:43:04.355Z,28.90
2018-08-09T14:45:32.829Z,29.70
2018-08-09T14:48:01.270Z,28.00
2018-08-09T14:50:29.617Z,26.00
2018-08-09T14:52:58.104Z,28.13
2018-08-09T14:55:26.500Z,26.53
2018-08-09T14:57:54.880Z,25.63
2018-08-09T15:00:23.301Z,25.50
2018-08-09T15:02:51.791Z,27.93
2018-08-09T15:05:20.185Z,25.93
2018-08-09T15:07:48.830Z,25.83
2018-08-09T15:10:18.135Z,25.97
2018-08-09T15:12:46.782Z,29.57
2018-08-09T15:15:15.251Z,28.33
2018-08-09T15:17:43.722Z,27.93
2018-08-09T15:20:13.434Z,27.03
2018-08-09T15:22:42.032Z,29.03
2018-08-09T15:25:11.109Z,28.60
2018-08-09T15:27:39.537Z,28.93
2018-08-09T15:30:19.653Z,28.03
2018-08-09T15:32:48.497Z,28.97
2018-08-09T15:35:16.978Z,30.77
2018-08-09T15:37:45.699Z,30.53
2018-08-09T15:40:14.848Z,32.30
2018-08-09T15:42:43.617Z,32.77
2018-08-09T15:45:13.721Z,31.43
2018-08-09T15:47:42.731Z,32.20
2018-08-09T15:50:12.960Z,33.93
2018-08-09T15:52:41.868Z,33.83
2018-08-09T15:55:10.517Z,34.40
2018-08-09T15:57:39.049Z,37.00
2018-08-09T16:00:10.352Z,37.13
2018-08-09T16:02:39.112Z,39.93
2018-08-09T16:05:08.248Z,39.40
2018-08-09T16:07:36.788Z,41.27
2018-08-09T16:10:07.999Z,43.83
2018-08-09T16:12:36.915Z,45.37
2018-08-09T16:15:06.420Z,50.33
2018-08-09T16:17:35.002Z,50.20
2018-08-09T16:20:03.483Z,51.53
2018-08-09T16:22:31.943Z,49.77
2018-08-09T16:25:00.313Z,52.43
2018-08-09T16:27:28.692Z,50.70
2018-08-09T16:29:57.226Z,53.93
2018-08-09T16:32:25.673Z,52.40
2018-08-09T16:34:54.055Z,49.00
2018-08-09T16:37:22.408Z,45.33
2018-08-09T16:39:50.898Z,32.07
2018-08-09T16:42:19.528Z,25.33
2018-08-09T16:44:47.899Z,22.23
2018-08-09T16:47:16.309Z,26.43
2018-08-09T16:49:44.752Z,28.43
2018-08-09T16:52:13.177Z,30.10
2018-08-09T16:54:41.623Z,31.20
2018-08-09T16:57:10.076Z,33.53
2018-08-09T16:59:38.513Z,31.20
2018-08-09T17:02:07.259Z,28.70
2018-08-09T17:04:35.774Z,24.53
2018-08-09T17:07:04.385Z,25.27
2018-08-09T17:09:32.865Z,17.20
2018-08-09T17:12:01.312Z,16.57
2018-08-09T17:14:29.801Z,14.50
2018-08-09T17:16:58.288Z,16.37
2018-08-09T17:19:27.688Z,12.00
2018-08-09T17:21:56.141Z,10.17
2018-08-09T17:24:24.626Z,6.33
2018-08-09T17:26:53.222Z,7.77
2018-08-09T17:29:21.676Z,6.40
2018-08-09T17:31:50.598Z,6.10
2018-08-09T17:34:19.051Z,6.17
2018-08-09T17:36:47.588Z,4.23
2018-08-09T17:39:16.020Z,3.47
2018-08-09T17:41:44.523Z,3.13
2018-08-09T17:44:13.130Z,2.97
2018-08-09T17:46:41.467Z,2.20
2018-08-09T17:49:09.886Z,3.20
2018-08-09T17:51:38.294Z,3.80
2018-08-09T17:54:07.259Z,3.50
2018-08-09T17:56:35.992Z,3.40
2018-08-09T17:59:04.510Z,4.80
2018-08-09T18:01:33.039Z,5.90
2018-08-09T18:04:01.619Z,4.53
2018-08-09T18:06:30.136Z,5.00
2018-08-09T18:08:58.556Z,4.00
2018-08-09T18:11:27.064Z,7.17
2018-08-09T18:13:55.593Z,5.20
2018-08-09T18:16:24.322Z,5.37
2018-08-09T18:18:53.000Z,5.43
2018-08-09T18:21:21.416Z,5.60
2018-08-09T18:23:49.852Z,6.37
2018-08-09T18:26:18.189Z,4.87
2018-08-09T18:28:46.748Z,5.80
2018-08-09T18:31:15.297Z,5.63
2018-08-09T18:33:43.740Z,3.77
2018-08-09T18:36:12.216Z,3.17
2018-08-09T18:38:40.808Z,2.27
2018-08-09T18:41:09.521Z,12.80
2018-08-09T18:43:38.035Z,2.43
2018-08-09T18:46:06.485Z,3.40
2018-08-09T18:48:34.893Z,6.23
2018-08-09T18:51:04.267Z,2.93
2018-08-09T18:53:32.652Z,2.90
2018-08-09T18:56:01.090Z,2.50
2018-08-09T18:58:29.528Z,1.47
2018-08-09T19:00:57.958Z,3.53
2018-08-09T19:03:26.393Z,1.97
2018-08-09T19:05:54.813Z,2.33
2018-08-09T19:08:23.289Z,1.70
2018-08-09T19:10:51.754Z,4.23
2018-08-09T19:13:20.148Z,3.90
2018-08-09T19:15:48.866Z,4.80
2018-08-09T19:18:17.256Z,3.00
2018-08-09T19:20:45.725Z,2.73
2018-08-09T19:23:14.126Z,2.27
2018-08-09T19:25:42.462Z,3.33
2018-08-09T19:28:10.914Z,3.03
2018-08-09T19:30:39.296Z,2.60
2018-08-09T19:33:07.763Z,4.87
2018-08-09T19:35:36.176Z,2.77
2018-08-09T19:38:04.546Z,2.70
2018-08-09T19:40:33.694Z,3.50
2018-08-09T19:43:02.500Z,3.17
2018-08-09T19:45:30.986Z,4.37
2018-08-09T19:47:59.387Z,3.20
2018-08-09T19:50:28.034Z,4.63
2018-08-09T19:52:56.645Z,4.23
2018-08-09T19:55:26.348Z,5.10
2018-08-09T19:57:54.725Z,6.33
2018-08-09T20:00:25.541Z,8.97
2018-08-09T20:02:53.953Z,7.17
2018-08-09T20:05:22.757Z,10.23
2018-08-09T20:07:51.252Z,6.00
2018-08-09T20:10:19.705Z,8.00
2018-08-09T20:12:48.734Z,9.10
2018-08-09T20:15:20.141Z,7.73
2018-08-09T20:17:48.830Z,6.50
2018-08-09T20:20:18.805Z,7.30
2018-08-09T20:22:47.577Z,7.33
2018-08-09T20:25:16.284Z,7.70
2018-08-09T20:27:45.101Z,7.60
2018-08-09T20:30:15.184Z,6.30
2018-08-09T20:32:44.189Z,8.73
2018-08-09T20:35:14.174Z,8.77
2018-08-09T20:37:43.636Z,11.97
2018-08-09T20:40:12.627Z,6.07
2018-08-09T20:42:41.397Z,5.83
2018-08-09T20:45:11.527Z,8.70
2018-08-09T20:47:39.956Z,8.13
2018-08-09T20:50:11.447Z,9.10
2018-08-09T20:52:40.536Z,7.67
2018-08-09T20:55:09.285Z,6.73
2018-08-09T20:57:38.342Z,6.40
2018-08-09T21:00:09.849Z,7.10
2018-08-09T21:02:38.245Z,8.23
2018-08-09T21:05:06.676Z,8.50
2018-08-09T21:07:35.146Z,7.60
2018-08-09T21:10:04.509Z,7.23
2018-08-09T21:12:32.956Z,9.00
2018-08-09T21:15:01.440Z,7.43
2018-08-09T21:17:29.809Z,5.93
2018-08-09T21:19:58.190Z,6.33
2018-08-09T21:22:26.575Z,5.20
2018-08-09T21:24:54.966Z,4.67
2018-08-09T21:27:23.418Z,4.47
2018-08-09T21:29:51.800Z,2.97
2018-08-09T21:32:20.345Z,2.30
2018-08-09T21:34:48.821Z,2.33
2018-08-09T21:37:17.242Z,2.80
2018-08-09T21:39:45.616Z,2.33
2018-08-09T21:42:14.031Z,2.93
2018-08-09T21:44:42.446Z,4.17
2018-08-09T21:47:10.957Z,3.00
2018-08-09T21:49:39.435Z,4.10
2018-08-09T21:52:07.926Z,3.17
2018-08-09T21:54:36.323Z,4.10
2018-08-09T21:57:05.053Z,1.50
2018-08-09T21:59:33.508Z,7.57
2018-08-09T22:02:01.875Z,2.70
2018-08-09T22:04:30.318Z,5.90
2018-08-09T22:07:04.395Z,3.67
2018-08-09T22:09:38.081Z,4.83
2018-08-09T22:12:11.918Z,5.23
2018-08-09T22:14:45.572Z,3.47
2018-08-09T22:17:19.291Z,7.70
2018-08-09T22:19:53.146Z,5.13
2018-08-09T22:22:23.419Z,4.87
2018-08-09T22:24:51.871Z,5.10
2018-08-09T22:27:20.320Z,5.23
2018-08-09T22:29:48.733Z,5.97
2018-08-09T22:32:17.235Z,6.47
2018-08-09T22:34:45.754Z,4.97
2018-08-09T22:37:14.222Z,7.73
2018-08-09T22:39:42.653Z,6.57
2018-08-09T22:42:11.531Z,5.80
2018-08-09T22:44:40.026Z,9.17
2018-08-09T22:47:08.455Z,5.23
2018-08-09T22:49:37.179Z,9.23
2018-08-09T22:52:05.672Z,6.30
2018-08-09T22:54:34.104Z,5.83
2018-08-09T22:57:02.474Z,4.87
2018-08-09T22:59:31.184Z,7.03
2018-08-09T23:01:59.559Z,6.87
2018-08-09T23:04:27.958Z,9.77
2018-08-09T23:06:56.370Z,5.50
2018-08-09T23:09:24.798Z,7.27
2018-08-09T23:11:53.208Z,7.70
2018-08-09T23:14:21.607Z,5.77
2018-08-09T23:16:50.018Z,11.27
2018-08-09T23:19:18.803Z,5.87
2018-08-09T23:21:47.188Z,7.00
2018-08-09T23:24:15.599Z,7.03
2018-08-09T23:26:44.072Z,7.17
2018-08-09T23:29:12.478Z,7.37
2018-08-09T23:31:40.864Z,6.17
2018-08-09T23:34:09.225Z,4.40
2018-08-09T23:36:37.644Z,14.83
2018-08-09T23:39:09.322Z,7.37
2018-08-09T23:41:37.761Z,7.43
2018-08-09T23:44:06.176Z,6.83
2018-08-09T23:46:34.542Z,5.57
2018-08-09T23:49:02.909Z,5.67
2018-08-09T23:51:31.266Z,9.67
2018-08-09T23:53:59.718Z,7.37
2018-08-09T23:56:28.520Z,4.60
2018-08-09T23:58:56.954Z,9.20
